sensor_id;sensor_type;location;lat;lon;timestamp;P1;durP1;ratioP1;P2;durP2;ratioP2
22521;SDS011;11427;51.062;17.044;2023-02-28T00:12:43;40.13;;;19.42;;
22521;SDS011;11427;51.062;17.044;2023-02-28T00:27:45;38.80;;;20.73;;
22521;SDS011;11427;51.062;17.044;2023-02-28T00:42:47;37.60;;;20.25;;
22521;SDS011;11427;51.062;17.044;2023-02-28T00:57:49;31.60;;;18.25;;
22521;SDS011;11427;51.062;17.044;2023-02-28T01:12:50;53.72;;;28.27;;
22521;SDS011;11427;51.062;17.044;2023-02-28T01:27:54;33.22;;;17.77;;
22521;SDS011;11427;51.062;17.044;2023-02-28T01:42:56;30.42;;;17.58;;
22521;SDS011;11427;51.062;17.044;2023-02-28T01:57:58;32.53;;;18.60;;
22521;SDS011;11427;51.062;17.044;2023-02-28T02:13:19;30.80;;;16.65;;
22521;SDS011;11427;51.062;17.044;2023-02-28T02:28:45;33.38;;;17.63;;
22521;SDS011;11427;51.062;17.044;2023-02-28T02:43:58;36.30;;;18.80;;
22521;SDS011;11427;51.062;17.044;2023-02-28T02:59:07;33.65;;;19.23;;
22521;SDS011;11427;51.062;17.044;2023-02-28T03:14:16;32.07;;;18.37;;
22521;SDS011;11427;51.062;17.044;2023-02-28T03:30:22;35.90;;;19.55;;
22521;SDS011;11427;51.062;17.044;2023-02-28T03:44:58;30.95;;;17.23;;
22521;SDS011;11427;51.062;17.044;2023-02-28T04:00:11;35.75;;;18.73;;
22521;SDS011;11427;51.062;17.044;2023-02-28T04:15:17;34.67;;;20.15;;
22521;SDS011;11427;51.062;17.044;2023-02-28T04:30:19;33.03;;;19.23;;
22521;SDS011;11427;51.062;17.044;2023-02-28T04:45:21;35.42;;;19.08;;
22521;SDS011;11427;51.062;17.044;2023-02-28T05:00:23;34.45;;;20.10;;
22521;SDS011;11427;51.062;17.044;2023-02-28T05:15:25;35.78;;;20.35;;
22521;SDS011;11427;51.062;17.044;2023-02-28T05:30:27;34.15;;;19.40;;
22521;SDS011;11427;51.062;17.044;2023-02-28T05:45:29;25.70;;;17.00;;
22521;SDS011;11427;51.062;17.044;2023-02-28T06:00:31;31.25;;;18.80;;
22521;SDS011;11427;51.062;17.044;2023-02-28T06:15:33;39.03;;;21.85;;
22521;SDS011;11427;51.062;17.044;2023-02-28T06:30:36;48.60;;;25.85;;
22521;SDS011;11427;51.062;17.044;2023-02-28T06:45:42;28.15;;;18.15;;
22521;SDS011;11427;51.062;17.044;2023-02-28T07:00:45;26.70;;;16.63;;
22521;SDS011;11427;51.062;17.044;2023-02-28T07:15:57;21.20;;;15.10;;
22521;SDS011;11427;51.062;17.044;2023-02-28T07:31:07;21.05;;;13.82;;
22521;SDS011;11427;51.062;17.044;2023-02-28T07:46:12;19.52;;;14.20;;
22521;SDS011;11427;51.062;17.044;2023-02-28T08:16:20;14.35;;;10.75;;
22521;SDS011;11427;51.062;17.044;2023-02-28T08:31:23;12.57;;;10.95;;
22521;SDS011;11427;51.062;17.044;2023-02-28T08:46:25;14.50;;;11.52;;
22521;SDS011;11427;51.062;17.044;2023-02-28T09:01:28;20.02;;;13.23;;
22521;SDS011;11427;51.062;17.044;2023-02-28T09:16:31;16.70;;;12.45;;
22521;SDS011;11427;51.062;17.044;2023-02-28T09:31:35;15.00;;;11.32;;
22521;SDS011;11427;51.062;17.044;2023-02-28T09:46:38;11.38;;;7.25;;
22521;SDS011;11427;51.062;17.044;2023-02-28T10:17:12;11.80;;;7.67;;
22521;SDS011;11427;51.062;17.044;2023-02-28T10:32:23;15.32;;;8.57;;
22521;SDS011;11427;51.062;17.044;2023-02-28T10:47:34;15.07;;;9.35;;
22521;SDS011;11427;51.062;17.044;2023-02-28T11:02:39;14.10;;;8.27;;
22521;SDS011;11427;51.062;17.044;2023-02-28T11:17:44;14.32;;;9.02;;
22521;SDS011;11427;51.062;17.044;2023-02-28T11:33:20;13.35;;;9.35;;
22521;SDS011;11427;51.062;17.044;2023-02-28T12:34:47;18.88;;;10.23;;
22521;SDS011;11427;51.062;17.044;2023-02-28T12:49:58;19.80;;;12.13;;
22521;SDS011;11427;51.062;17.044;2023-02-28T13:20:52;18.30;;;11.20;;
22521;SDS011;11427;51.062;17.044;2023-02-28T13:51:23;23.03;;;13.87;;
22521;SDS011;11427;51.062;17.044;2023-02-28T14:06:54;22.17;;;13.77;;
22521;SDS011;11427;51.062;17.044;2023-02-28T14:37:33;27.55;;;16.17;;
22521;SDS011;11427;51.062;17.044;2023-02-28T14:52:42;23.40;;;14.60;;
22521;SDS011;11427;51.062;17.044;2023-02-28T15:07:45;26.10;;;15.68;;
22521;SDS011;11427;51.062;17.044;2023-02-28T15:22:49;23.73;;;14.55;;
22521;SDS011;11427;51.062;17.044;2023-02-28T15:37:54;26.33;;;15.55;;
22521;SDS011;11427;51.062;17.044;2023-02-28T15:52:58;25.45;;;14.80;;
22521;SDS011;11427;51.062;17.044;2023-02-28T16:08:13;23.58;;;13.57;;
22521;SDS011;11427;51.062;17.044;2023-02-28T16:23:16;20.23;;;13.23;;
22521;SDS011;11427;51.062;17.044;2023-02-28T16:38:18;22.63;;;13.73;;
22521;SDS011;11427;51.062;17.044;2023-02-28T16:53:20;20.33;;;13.38;;
22521;SDS011;11427;51.062;17.044;2023-02-28T17:08:25;25.33;;;16.10;;
22521;SDS011;11427;51.062;17.044;2023-02-28T17:23:30;25.73;;;17.17;;
22521;SDS011;11427;51.062;17.044;2023-02-28T17:38:32;27.65;;;16.95;;
22521;SDS011;11427;51.062;17.044;2023-02-28T17:53:34;31.63;;;20.13;;
22521;SDS011;11427;51.062;17.044;2023-02-28T18:08:36;41.30;;;23.13;;
22521;SDS011;11427;51.062;17.044;2023-02-28T18:23:38;42.58;;;26.15;;
22521;SDS011;11427;51.062;17.044;2023-02-28T18:38:48;47.97;;;28.50;;
22521;SDS011;11427;51.062;17.044;2023-02-28T18:53:50;55.38;;;31.10;;
22521;SDS011;11427;51.062;17.044;2023-02-28T19:08:53;57.67;;;32.00;;
22521;SDS011;11427;51.062;17.044;2023-02-28T19:23:56;56.35;;;31.90;;
22521;SDS011;11427;51.062;17.044;2023-02-28T19:38:58;55.22;;;32.35;;
22521;SDS011;11427;51.062;17.044;2023-02-28T19:54:00;60.97;;;33.55;;
22521;SDS011;11427;51.062;17.044;2023-02-28T20:09:03;56.53;;;33.50;;
22521;SDS011;11427;51.062;17.044;2023-02-28T20:24:05;65.03;;;36.83;;
22521;SDS011;11427;51.062;17.044;2023-02-28T20:39:08;55.47;;;31.90;;
22521;SDS011;11427;51.062;17.044;2023-02-28T20:54:10;62.30;;;34.97;;
22521;SDS011;11427;51.062;17.044;2023-02-28T21:09:13;61.88;;;37.40;;
22521;SDS011;11427;51.062;17.044;2023-02-28T21:24:16;60.95;;;35.30;;
22521;SDS011;11427;51.062;17.044;2023-02-28T21:39:20;69.63;;;38.22;;
22521;SDS011;11427;51.062;17.044;2023-02-28T21:54:26;80.70;;;41.75;;
22521;SDS011;11427;51.062;17.044;2023-02-28T22:09:28;53.97;;;32.08;;
22521;SDS011;11427;51.062;17.044;2023-02-28T22:24:30;68.40;;;38.45;;
22521;SDS011;11427;51.062;17.044;2023-02-28T22:39:32;64.32;;;36.80;;
22521;SDS011;11427;51.062;17.044;2023-02-28T22:54:34;80.78;;;42.65;;
22521;SDS011;11427;51.062;17.044;2023-02-28T23:09:36;72.10;;;39.25;;
22521;SDS011;11427;51.062;17.044;2023-02-28T23:24:38;74.22;;;40.72;;
22521;SDS011;11427;51.062;17.044;2023-02-28T23:39:40;71.03;;;38.50;;
22521;SDS011;11427;51.062;17.044;2023-02-28T23:54:42;82.88;;;43.08;;
